sensor_id;sensor_type;location;lat;lon;timestamp;temperature;humidity
9965;DHT22;5023;53.554;9.964;2023-02-16T00:02:09;4.70;99.90
9965;DHT22;5023;53.554;9.964;2023-02-16T00:07:11;4.70;99.90
9965;DHT22;5023;53.554;9.964;2023-02-16T00:12:18;4.60;99.90
9965;DHT22;5023;53.554;9.964;2023-02-16T00:17:41;4.60;99.90
9965;DHT22;5023;53.554;9.964;2023-02-16T00:22:43;4.60;99.90
9965;DHT22;5023;53.554;9.964;2023-02-16T00:27:48;4.70;99.90
9965;DHT22;5023;53.554;9.964;2023-02-16T00:33:01;4.70;99.90
9965;DHT22;5023;53.554;9.964;2023-02-16T00:38:04;4.60;99.90
9965;DHT22;5023;53.554;9.964;2023-02-16T00:43:06;4.70;99.90
9965;DHT22;5023;53.554;9.964;2023-02-16T00:48:17;4.80;99.90
9965;DHT22;5023;53.554;9.964;2023-02-16T00:53:25;4.90;99.90
9965;DHT22;5023;53.554;9.964;2023-02-16T00:58:29;5.00;99.90
9965;DHT22;5023;53.554;9.964;2023-02-16T01:03:36;5.10;99.90
9965;DHT22;5023;53.554;9.964;2023-02-16T01:08:39;5.20;99.90
9965;DHT22;5023;53.554;9.964;2023-02-16T01:13:59;5.20;99.90
9965;DHT22;5023;53.554;9.964;2023-02-16T01:19:08;5.20;99.90
9965;DHT22;5023;53.554;9.964;2023-02-16T01:24:11;5.20;99.90
9965;DHT22;5023;53.554;9.964;2023-02-16T01:29:15;5.20;99.90
9965;DHT22;5023;53.554;9.964;2023-02-16T01:34:20;5.20;99.90
9965;DHT22;5023;53.554;9.964;2023-02-16T01:39:22;5.20;99.90
9965;DHT22;5023;53.554;9.964;2023-02-16T01:44:28;5.30;99.90
9965;DHT22;5023;53.554;9.964;2023-02-16T01:49:34;5.30;99.90
9965;DHT22;5023;53.554;9.964;2023-02-16T01:54:40;5.30;99.90
9965;DHT22;5023;53.554;9.964;2023-02-16T02:00:04;5.30;99.90
9965;DHT22;5023;53.554;9.964;2023-02-16T02:05:24;5.30;99.90
9965;DHT22;5023;53.554;9.964;2023-02-16T02:10:44;5.30;99.90
9965;DHT22;5023;53.554;9.964;2023-02-16T02:15:53;5.40;99.90
9965;DHT22;5023;53.554;9.964;2023-02-16T02:21:17;5.40;99.90
9965;DHT22;5023;53.554;9.964;2023-02-16T02:26:54;5.40;99.90
9965;DHT22;5023;53.554;9.964;2023-02-16T02:32:05;5.50;99.90
9965;DHT22;5023;53.554;9.964;2023-02-16T02:37:17;5.50;99.90
9965;DHT22;5023;53.554;9.964;2023-02-16T02:42:30;5.50;99.90
9965;DHT22;5023;53.554;9.964;2023-02-16T02:47:38;5.60;99.90
9965;DHT22;5023;53.554;9.964;2023-02-16T02:52:41;5.60;99.90
9965;DHT22;5023;53.554;9.964;2023-02-16T02:57:46;5.70;99.90
9965;DHT22;5023;53.554;9.964;2023-02-16T03:03:11;5.60;99.90
9965;DHT22;5023;53.554;9.964;2023-02-16T03:08:21;5.70;99.90
9965;DHT22;5023;53.554;9.964;2023-02-16T03:13:30;5.70;99.90
9965;DHT22;5023;53.554;9.964;2023-02-16T03:18:35;5.70;99.90
9965;DHT22;5023;53.554;9.964;2023-02-16T03:23:56;5.70;99.90
9965;DHT22;5023;53.554;9.964;2023-02-16T03:29:19;5.60;99.90
9965;DHT22;5023;53.554;9.964;2023-02-16T03:34:24;5.70;99.90
9965;DHT22;5023;53.554;9.964;2023-02-16T03:39:28;5.70;99.90
9965;DHT22;5023;53.554;9.964;2023-02-16T03:44:32;5.70;99.90
9965;DHT22;5023;53.554;9.964;2023-02-16T03:49:37;5.60;99.90
9965;DHT22;5023;53.554;9.964;2023-02-16T03:54:42;5.50;99.90
9965;DHT22;5023;53.554;9.964;2023-02-16T03:59:59;5.60;99.90
9965;DHT22;5023;53.554;9.964;2023-02-16T04:05:01;5.60;99.90
9965;DHT22;5023;53.554;9.964;2023-02-16T04:10:04;5.60;99.90
9965;DHT22;5023;53.554;9.964;2023-02-16T04:15:10;5.60;99.90
9965;DHT22;5023;53.554;9.964;2023-02-16T04:20:14;5.60;99.90
9965;DHT22;5023;53.554;9.964;2023-02-16T04:25:17;5.50;99.90
9965;DHT22;5023;53.554;9.964;2023-02-16T04:30:23;5.50;99.90
9965;DHT22;5023;53.554;9.964;2023-02-16T04:35:26;5.50;99.90
9965;DHT22;5023;53.554;9.964;2023-02-16T04:40:28;5.50;99.90
9965;DHT22;5023;53.554;9.964;2023-02-16T04:45:32;5.50;99.90
9965;DHT22;5023;53.554;9.964;2023-02-16T04:50:34;5.40;99.90
9965;DHT22;5023;53.554;9.964;2023-02-16T04:55:37;5.40;99.90
9965;DHT22;5023;53.554;9.964;2023-02-16T05:00:41;5.40;99.90
9965;DHT22;5023;53.554;9.964;2023-02-16T05:05:43;5.40;99.90
9965;DHT22;5023;53.554;9.964;2023-02-16T05:10:45;5.30;99.90
9965;DHT22;5023;53.554;9.964;2023-02-16T05:16:09;5.40;99.90
9965;DHT22;5023;53.554;9.964;2023-02-16T05:21:12;5.40;99.90
9965;DHT22;5023;53.554;9.964;2023-02-16T05:26:36;5.30;99.90
9965;DHT22;5023;53.554;9.964;2023-02-16T05:31:40;5.40;99.90
9965;DHT22;5023;53.554;9.964;2023-02-16T05:36:42;5.40;99.90
9965;DHT22;5023;53.554;9.964;2023-02-16T05:41:44;5.40;99.90
9965;DHT22;5023;53.554;9.964;2023-02-16T05:46:50;5.30;99.90
9965;DHT22;5023;53.554;9.964;2023-02-16T05:51:52;5.40;99.90
9965;DHT22;5023;53.554;9.964;2023-02-16T05:56:54;5.40;99.90
9965;DHT22;5023;53.554;9.964;2023-02-16T06:01:58;5.40;99.90
9965;DHT22;5023;53.554;9.964;2023-02-16T06:07:03;5.40;99.90
9965;DHT22;5023;53.554;9.964;2023-02-16T06:12:05;5.40;99.90
9965;DHT22;5023;53.554;9.964;2023-02-16T06:17:09;5.40;99.90
9965;DHT22;5023;53.554;9.964;2023-02-16T06:22:11;5.50;99.90
9965;DHT22;5023;53.554;9.964;2023-02-16T06:27:13;5.50;99.90
9965;DHT22;5023;53.554;9.964;2023-02-16T06:32:17;5.50;99.90
9965;DHT22;5023;53.554;9.964;2023-02-16T06:37:19;5.60;99.90
9965;DHT22;5023;53.554;9.964;2023-02-16T06:42:22;5.60;99.90
9965;DHT22;5023;53.554;9.964;2023-02-16T06:47:25;5.70;99.90
9965;DHT22;5023;53.554;9.964;2023-02-16T06:52:27;5.70;99.90
9965;DHT22;5023;53.554;9.964;2023-02-16T06:57:29;5.70;99.90
9965;DHT22;5023;53.554;9.964;2023-02-16T07:02:33;5.60;99.90
9965;DHT22;5023;53.554;9.964;2023-02-16T07:07:37;5.70;99.90
9965;DHT22;5023;53.554;9.964;2023-02-16T07:12:39;5.70;99.90
9965;DHT22;5023;53.554;9.964;2023-02-16T07:17:42;5.70;99.90
9965;DHT22;5023;53.554;9.964;2023-02-16T07:22:47;5.70;99.90
9965;DHT22;5023;53.554;9.964;2023-02-16T07:27:50;5.80;99.90
9965;DHT22;5023;53.554;9.964;2023-02-16T07:32:55;5.80;99.90
9965;DHT22;5023;53.554;9.964;2023-02-16T07:37:58;5.90;99.90
9965;DHT22;5023;53.554;9.964;2023-02-16T07:43:00;5.90;99.90
9965;DHT22;5023;53.554;9.964;2023-02-16T07:48:04;6.10;99.90
9965;DHT22;5023;53.554;9.964;2023-02-16T07:53:08;6.10;99.90
9965;DHT22;5023;53.554;9.964;2023-02-16T07:58:10;6.20;99.90
9965;DHT22;5023;53.554;9.964;2023-02-16T08:03:28;6.20;99.90
9965;DHT22;5023;53.554;9.964;2023-02-16T08:08:30;6.30;99.90
9965;DHT22;5023;53.554;9.964;2023-02-16T08:13:33;6.30;99.90
9965;DHT22;5023;53.554;9.964;2023-02-16T08:18:37;6.40;99.90
9965;DHT22;5023;53.554;9.964;2023-02-16T08:23:41;6.40;99.90
9965;DHT22;5023;53.554;9.964;2023-02-16T08:28:47;6.40;99.90
9965;DHT22;5023;53.554;9.964;2023-02-16T08:33:52;6.50;99.90
9965;DHT22;5023;53.554;9.964;2023-02-16T08:38:55;6.50;99.90
9965;DHT22;5023;53.554;9.964;2023-02-16T08:43:57;6.60;99.90
9965;DHT22;5023;53.554;9.964;2023-02-16T08:49:02;6.60;99.90
9965;DHT22;5023;53.554;9.964;2023-02-16T08:54:06;6.70;99.90
9965;DHT22;5023;53.554;9.964;2023-02-16T08:59:10;6.70;99.90
9965;DHT22;5023;53.554;9.964;2023-02-16T09:04:17;6.80;99.90
9965;DHT22;5023;53.554;9.964;2023-02-16T09:09:21;7.10;99.90
9965;DHT22;5023;53.554;9.964;2023-02-16T09:14:23;7.20;99.90
9965;DHT22;5023;53.554;9.964;2023-02-16T09:19:27;7.20;99.90
9965;DHT22;5023;53.554;9.964;2023-02-16T09:24:29;7.10;99.90
9965;DHT22;5023;53.554;9.964;2023-02-16T09:29:32;7.10;99.90
9965;DHT22;5023;53.554;9.964;2023-02-16T09:34:39;7.00;99.90
9965;DHT22;5023;53.554;9.964;2023-02-16T09:39:44;7.00;99.90
9965;DHT22;5023;53.554;9.964;2023-02-16T09:44:49;7.00;99.90
9965;DHT22;5023;53.554;9.964;2023-02-16T09:50:00;6.90;99.90
9965;DHT22;5023;53.554;9.964;2023-02-16T09:55:06;6.90;99.90
9965;DHT22;5023;53.554;9.964;2023-02-16T10:00:15;7.00;99.90
9965;DHT22;5023;53.554;9.964;2023-02-16T10:05:29;7.00;99.90
9965;DHT22;5023;53.554;9.964;2023-02-16T10:10:43;7.10;99.90
9965;DHT22;5023;53.554;9.964;2023-02-16T10:15:48;7.20;99.90
9965;DHT22;5023;53.554;9.964;2023-02-16T10:20:55;7.30;99.90
9965;DHT22;5023;53.554;9.964;2023-02-16T10:26:03;7.40;99.90
9965;DHT22;5023;53.554;9.964;2023-02-16T10:31:12;7.40;99.90
9965;DHT22;5023;53.554;9.964;2023-02-16T10:36:25;7.40;99.90
9965;DHT22;5023;53.554;9.964;2023-02-16T10:41:32;7.50;99.90
9965;DHT22;5023;53.554;9.964;2023-02-16T10:46:41;7.60;99.90
9965;DHT22;5023;53.554;9.964;2023-02-16T10:51:48;7.60;99.90
9965;DHT22;5023;53.554;9.964;2023-02-16T10:56:52;7.60;99.90
9965;DHT22;5023;53.554;9.964;2023-02-16T11:01:58;7.60;99.90
9965;DHT22;5023;53.554;9.964;2023-02-16T11:07:04;7.70;99.90
9965;DHT22;5023;53.554;9.964;2023-02-16T11:12:19;7.70;99.90
9965;DHT22;5023;53.554;9.964;2023-02-16T11:17:47;7.80;99.90
9965;DHT22;5023;53.554;9.964;2023-02-16T11:22:51;7.90;99.90
9965;DHT22;5023;53.554;9.964;2023-02-16T11:27:55;8.00;99.90
9965;DHT22;5023;53.554;9.964;2023-02-16T11:32:59;8.10;99.90
9965;DHT22;5023;53.554;9.964;2023-02-16T11:38:04;8.00;99.90
9965;DHT22;5023;53.554;9.964;2023-02-16T11:43:16;8.10;99.90
9965;DHT22;5023;53.554;9.964;2023-02-16T11:48:26;8.10;99.90
9965;DHT22;5023;53.554;9.964;2023-02-16T11:53:32;8.10;99.90
9965;DHT22;5023;53.554;9.964;2023-02-16T11:58:34;8.20;99.90
9965;DHT22;5023;53.554;9.964;2023-02-16T12:03:58;8.20;99.90
9965;DHT22;5023;53.554;9.964;2023-02-16T12:09:18;8.20;99.90
9965;DHT22;5023;53.554;9.964;2023-02-16T12:14:30;8.20;99.90
9965;DHT22;5023;53.554;9.964;2023-02-16T12:19:39;8.30;99.90
9965;DHT22;5023;53.554;9.964;2023-02-16T12:24:49;8.40;99.90
9965;DHT22;5023;53.554;9.964;2023-02-16T12:29:59;8.40;99.90
9965;DHT22;5023;53.554;9.964;2023-02-16T12:35:20;8.30;99.90
9965;DHT22;5023;53.554;9.964;2023-02-16T12:40:36;8.30;99.90
9965;DHT22;5023;53.554;9.964;2023-02-16T12:45:45;8.40;99.90
9965;DHT22;5023;53.554;9.964;2023-02-16T12:50:49;8.40;99.90
9965;DHT22;5023;53.554;9.964;2023-02-16T12:55:59;8.30;99.90
9965;DHT22;5023;53.554;9.964;2023-02-16T13:01:07;8.40;99.90
9965;DHT22;5023;53.554;9.964;2023-02-16T13:06:17;8.50;99.90
9965;DHT22;5023;53.554;9.964;2023-02-16T13:11:27;8.50;99.90
9965;DHT22;5023;53.554;9.964;2023-02-16T13:16:38;8.50;99.90
9965;DHT22;5023;53.554;9.964;2023-02-16T13:27:28;8.60;99.90
9965;DHT22;5023;53.554;9.964;2023-02-16T13:32:47;8.50;99.90
9965;DHT22;5023;53.554;9.964;2023-02-16T13:38:03;8.60;99.90
9965;DHT22;5023;53.554;9.964;2023-02-16T13:43:25;8.60;99.90
9965;DHT22;5023;53.554;9.964;2023-02-16T13:48:37;8.60;99.90
9965;DHT22;5023;53.554;9.964;2023-02-16T13:53:42;8.60;99.90
9965;DHT22;5023;53.554;9.964;2023-02-16T13:58:55;8.60;99.90
9965;DHT22;5023;53.554;9.964;2023-02-16T14:03:59;8.70;99.90
9965;DHT22;5023;53.554;9.964;2023-02-16T14:09:32;8.70;99.90
9965;DHT22;5023;53.554;9.964;2023-02-16T14:15:03;8.70;99.90
9965;DHT22;5023;53.554;9.964;2023-02-16T14:20:26;8.70;99.90
9965;DHT22;5023;53.554;9.964;2023-02-16T14:25:35;8.70;99.90
9965;DHT22;5023;53.554;9.964;2023-02-16T14:30:45;8.70;99.90
9965;DHT22;5023;53.554;9.964;2023-02-16T14:36:06;8.80;99.90
9965;DHT22;5023;53.554;9.964;2023-02-16T14:41:26;8.80;99.90
9965;DHT22;5023;53.554;9.964;2023-02-16T14:46:42;8.80;99.90
9965;DHT22;5023;53.554;9.964;2023-02-16T14:52:13;8.80;99.90
9965;DHT22;5023;53.554;9.964;2023-02-16T14:57:25;8.80;99.90
9965;DHT22;5023;53.554;9.964;2023-02-16T15:02:33;8.80;99.90
9965;DHT22;5023;53.554;9.964;2023-02-16T15:07:37;8.80;99.90
9965;DHT22;5023;53.554;9.964;2023-02-16T15:12:41;8.80;99.90
9965;DHT22;5023;53.554;9.964;2023-02-16T15:17:46;8.80;99.90
9965;DHT22;5023;53.554;9.964;2023-02-16T15:22:53;8.80;99.90
9965;DHT22;5023;53.554;9.964;2023-02-16T15:28:00;8.80;99.90
9965;DHT22;5023;53.554;9.964;2023-02-16T15:33:10;8.80;99.90
9965;DHT22;5023;53.554;9.964;2023-02-16T15:38:20;8.80;99.90
9965;DHT22;5023;53.554;9.964;2023-02-16T15:43:28;8.80;99.90
9965;DHT22;5023;53.554;9.964;2023-02-16T15:48:35;8.70;99.90
9965;DHT22;5023;53.554;9.964;2023-02-16T15:53:45;8.80;99.90
9965;DHT22;5023;53.554;9.964;2023-02-16T15:58:48;8.60;99.90
9965;DHT22;5023;53.554;9.964;2023-02-16T16:03:56;8.60;99.90
9965;DHT22;5023;53.554;9.964;2023-02-16T16:09:00;8.60;99.90
9965;DHT22;5023;53.554;9.964;2023-02-16T16:14:06;8.50;99.90
9965;DHT22;5023;53.554;9.964;2023-02-16T16:19:16;8.50;99.90
9965;DHT22;5023;53.554;9.964;2023-02-16T16:24:31;8.40;99.90
9965;DHT22;5023;53.554;9.964;2023-02-16T16:29:37;8.40;99.90
9965;DHT22;5023;53.554;9.964;2023-02-16T16:34:42;8.40;99.90
9965;DHT22;5023;53.554;9.964;2023-02-16T16:39:57;8.30;99.90
9965;DHT22;5023;53.554;9.964;2023-02-16T16:45:03;8.20;99.90
9965;DHT22;5023;53.554;9.964;2023-02-16T16:50:28;8.20;99.90
9965;DHT22;5023;53.554;9.964;2023-02-16T16:55:33;8.20;99.90
9965;DHT22;5023;53.554;9.964;2023-02-16T17:00:37;8.20;99.90
9965;DHT22;5023;53.554;9.964;2023-02-16T17:05:43;8.10;99.90
9965;DHT22;5023;53.554;9.964;2023-02-16T17:10:46;8.10;99.90
9965;DHT22;5023;53.554;9.964;2023-02-16T17:15:51;8.10;99.90
9965;DHT22;5023;53.554;9.964;2023-02-16T17:20:56;8.20;99.90
9965;DHT22;5023;53.554;9.964;2023-02-16T17:25:58;8.10;99.90
9965;DHT22;5023;53.554;9.964;2023-02-16T17:31:02;8.10;99.90
9965;DHT22;5023;53.554;9.964;2023-02-16T17:36:06;8.10;99.90
9965;DHT22;5023;53.554;9.964;2023-02-16T17:41:19;8.10;99.90
9965;DHT22;5023;53.554;9.964;2023-02-16T17:46:23;8.10;99.90
9965;DHT22;5023;53.554;9.964;2023-02-16T17:51:27;8.10;99.90
9965;DHT22;5023;53.554;9.964;2023-02-16T17:56:32;8.10;99.90
9965;DHT22;5023;53.554;9.964;2023-02-16T18:01:34;8.10;99.90
9965;DHT22;5023;53.554;9.964;2023-02-16T18:06:39;8.10;99.90
9965;DHT22;5023;53.554;9.964;2023-02-16T18:11:41;8.10;99.90
9965;DHT22;5023;53.554;9.964;2023-02-16T18:16:43;8.00;99.90
9965;DHT22;5023;53.554;9.964;2023-02-16T18:21:46;8.10;99.90
9965;DHT22;5023;53.554;9.964;2023-02-16T18:26:49;8.10;99.90
9965;DHT22;5023;53.554;9.964;2023-02-16T18:31:51;8.10;99.90
9965;DHT22;5023;53.554;9.964;2023-02-16T18:36:55;8.00;99.90
9965;DHT22;5023;53.554;9.964;2023-02-16T18:41:57;8.10;99.90
9965;DHT22;5023;53.554;9.964;2023-02-16T18:47:00;8.10;99.90
9965;DHT22;5023;53.554;9.964;2023-02-16T18:52:04;8.00;99.90
9965;DHT22;5023;53.554;9.964;2023-02-16T18:57:06;8.10;99.90
9965;DHT22;5023;53.554;9.964;2023-02-16T19:02:10;8.10;99.90
9965;DHT22;5023;53.554;9.964;2023-02-16T19:07:14;8.10;99.90
9965;DHT22;5023;53.554;9.964;2023-02-16T19:12:19;8.10;99.90
9965;DHT22;5023;53.554;9.964;2023-02-16T19:17:21;8.10;99.90
9965;DHT22;5023;53.554;9.964;2023-02-16T19:22:27;8.20;99.90
9965;DHT22;5023;53.554;9.964;2023-02-16T19:27:29;8.10;99.90
9965;DHT22;5023;53.554;9.964;2023-02-16T19:32:31;8.20;99.90
9965;DHT22;5023;53.554;9.964;2023-02-16T19:37:39;8.20;99.90
9965;DHT22;5023;53.554;9.964;2023-02-16T19:42:43;8.10;99.90
9965;DHT22;5023;53.554;9.964;2023-02-16T19:47:48;8.10;99.90
9965;DHT22;5023;53.554;9.964;2023-02-16T19:52:53;8.20;99.90
9965;DHT22;5023;53.554;9.964;2023-02-16T19:57:55;8.20;99.90
9965;DHT22;5023;53.554;9.964;2023-02-16T20:02:58;8.20;99.90
9965;DHT22;5023;53.554;9.964;2023-02-16T20:08:02;8.20;99.90
9965;DHT22;5023;53.554;9.964;2023-02-16T20:13:04;8.20;99.90
9965;DHT22;5023;53.554;9.964;2023-02-16T20:18:07;8.20;99.90
9965;DHT22;5023;53.554;9.964;2023-02-16T20:23:11;8.20;99.90
9965;DHT22;5023;53.554;9.964;2023-02-16T20:28:14;8.20;99.90
9965;DHT22;5023;53.554;9.964;2023-02-16T20:33:16;8.20;99.90
9965;DHT22;5023;53.554;9.964;2023-02-16T20:38:21;8.20;99.90
9965;DHT22;5023;53.554;9.964;2023-02-16T20:43:24;8.30;99.90
9965;DHT22;5023;53.554;9.964;2023-02-16T20:48:26;8.30;99.90
9965;DHT22;5023;53.554;9.964;2023-02-16T20:53:30;8.20;99.90
9965;DHT22;5023;53.554;9.964;2023-02-16T20:58:35;8.30;99.90
9965;DHT22;5023;53.554;9.964;2023-02-16T21:03:38;8.30;99.90
9965;DHT22;5023;53.554;9.964;2023-02-16T21:08:43;8.30;99.90
9965;DHT22;5023;53.554;9.964;2023-02-16T21:13:46;8.30;99.90
9965;DHT22;5023;53.554;9.964;2023-02-16T21:18:49;8.30;99.90
9965;DHT22;5023;53.554;9.964;2023-02-16T21:23:53;8.30;99.90
9965;DHT22;5023;53.554;9.964;2023-02-16T21:28:56;8.30;99.90
9965;DHT22;5023;53.554;9.964;2023-02-16T21:33:58;8.30;99.90
9965;DHT22;5023;53.554;9.964;2023-02-16T21:39:04;8.30;99.90
9965;DHT22;5023;53.554;9.964;2023-02-16T21:44:13;8.40;99.90
9965;DHT22;5023;53.554;9.964;2023-02-16T21:49:18;8.40;99.90
9965;DHT22;5023;53.554;9.964;2023-02-16T21:54:24;8.40;99.90
9965;DHT22;5023;53.554;9.964;2023-02-16T21:59:46;8.40;99.90
9965;DHT22;5023;53.554;9.964;2023-02-16T22:04:48;8.40;99.90
9965;DHT22;5023;53.554;9.964;2023-02-16T22:09:52;8.40;99.90
9965;DHT22;5023;53.554;9.964;2023-02-16T22:14:57;8.40;99.90
9965;DHT22;5023;53.554;9.964;2023-02-16T22:19:59;8.40;99.90
9965;DHT22;5023;53.554;9.964;2023-02-16T22:25:03;8.40;99.90
9965;DHT22;5023;53.554;9.964;2023-02-16T22:30:06;8.50;99.90
9965;DHT22;5023;53.554;9.964;2023-02-16T22:35:09;8.50;99.90
9965;DHT22;5023;53.554;9.964;2023-02-16T22:40:13;8.50;99.90
9965;DHT22;5023;53.554;9.964;2023-02-16T22:45:19;8.50;99.90
9965;DHT22;5023;53.554;9.964;2023-02-16T22:50:24;8.50;99.90
9965;DHT22;5023;53.554;9.964;2023-02-16T22:55:28;8.50;99.90
9965;DHT22;5023;53.554;9.964;2023-02-16T23:00:32;8.50;99.90
9965;DHT22;5023;53.554;9.964;2023-02-16T23:05:37;8.50;99.90
9965;DHT22;5023;53.554;9.964;2023-02-16T23:10:42;8.60;99.90
9965;DHT22;5023;53.554;9.964;2023-02-16T23:16:04;8.60;99.90
9965;DHT22;5023;53.554;9.964;2023-02-16T23:21:09;8.60;99.90
9965;DHT22;5023;53.554;9.964;2023-02-16T23:26:13;8.60;99.90
9965;DHT22;5023;53.554;9.964;2023-02-16T23:31:15;8.70;99.90
9965;DHT22;5023;53.554;9.964;2023-02-16T23:36:17;8.60;99.90
9965;DHT22;5023;53.554;9.964;2023-02-16T23:41:22;8.70;99.90
9965;DHT22;5023;53.554;9.964;2023-02-16T23:46:25;8.70;99.90
9965;DHT22;5023;53.554;9.964;2023-02-16T23:51:27;8.70;99.90
9965;DHT22;5023;53.554;9.964;2023-02-16T23:56:31;8.70;99.90
